MMNL

Details ICAO MMNL (NLD)
Name QUETZALCOATL INTL
Region Mexico
Timezone America/Matamoros (UTC-6.0)
Plans Departing 5
Arriving 5
Stats Elevation 484 ft / 148 m (AMSL)
Location 27.443780° -99.570460°
Runways 1
Magnetic Variation 4.799° E
Sunrise 2017-12-14 13:21:51 UTC / 2017-12-14 07:21:51 Local
Sunset 2017-12-14 23:47:08 UTC / 2017-12-14 17:47:08 Local
Advertisement - Login to hide

Runways

ID Width Length Bearing (true) Bearing (mag) Surface Threshold Offset Overrun Length
14 148 ft / 45 m 6,614 ft / 2,016 m 150.86° 146.06° Asphalt 0 ft / 0 m 185 ft / 56 m
32 148 ft / 45 m 6,614 ft / 2,016 m 330.87° 326.07° Asphalt 0 ft / 0 m 185 ft / 56 m

Map

Weather


0- 5 10 15 20 25 30 35+ Temperature / ° C

Clouds and Precipitation
Forecast for 2017-12-14 18:00 UTC. Updated 2 hours ago

Ground ~20,000 ft ~40,000 ft Winds

METAR

Not found

TAF

TAF MMNL 140521Z 1406/1506 00000KT P6SM BKN250 FM141800 20010KT P6SM BKN100 OVC250 FM150500 20005KT P6SM SCT030 BKN080

Frequencies

Approach 118.30 MHz NUEVO LAREDO APP/TWR
Warning: Do not use this data for real-world aviation or navigation. No guarantee of current accuracy is given.